Time,TemperatureF,DewpointF,PressureIn,WindDirection,WindDirectionDegrees,WindSpeedMPH,WindSpeedGustMPH,Humidity,HourlyPrecipIn,Conditions,Clouds,dailyrainin,SoftwareType,DateUTC
2017-03-25 00:08:00,36.0,34.2,30.13,ENE,64,9.0,13.0,93,0.00,,---,0.00,VWS V15.00,2017-03-25 05:08:00,
2017-03-25 00:13:00,36.0,34.2,30.13,NE,44,9.0,15.0,93,0.00,,---,0.00,VWS V15.00,2017-03-25 05:13:00,
2017-03-25 00:18:00,35.9,34.1,30.13,NE,54,9.0,11.0,93,0.00,,---,0.00,VWS V15.00,2017-03-25 05:18:00,
2017-03-25 00:23:00,35.9,34.1,30.13,NE,50,11.0,20.0,93,0.00,,---,0.00,VWS V15.00,2017-03-25 05:23:00,
2017-03-25 00:28:00,35.9,34.1,30.12,ENE,63,9.0,13.0,93,0.00,,---,0.00,VWS V15.00,2017-03-25 05:28:00,
2017-03-25 00:33:00,35.9,34.1,30.12,NE,46,11.0,13.0,93,0.00,,---,0.00,VWS V15.00,2017-03-25 05:33:00,
2017-03-25 00:38:00,35.9,34.1,30.12,NE,55,13.0,13.0,93,0.00,,---,0.00,VWS V15.00,2017-03-25 05:38:00,
2017-03-25 00:43:00,35.9,34.1,30.12,NE,36,15.0,15.0,93,0.00,,---,0.00,VWS V15.00,2017-03-25 05:43:00,
2017-03-25 00:48:00,36.0,34.2,30.13,ENE,65,9.0,13.0,93,0.00,,---,0.00,VWS V15.00,2017-03-25 05:48:00,
2017-03-25 00:53:00,36.0,34.2,30.13,NE,46,8.0,13.0,93,0.00,,---,0.00,VWS V15.00,2017-03-25 05:53:00,
2017-03-25 00:58:00,36.0,34.2,30.12,East,83,10.0,16.0,93,0.00,,---,0.00,VWS V15.00,2017-03-25 05:58:00,
2017-03-25 01:03:00,36.0,34.2,30.12,NE,55,13.0,13.0,93,0.00,,---,0.00,VWS V15.00,2017-03-25 06:03:00,
2017-03-25 01:08:00,36.0,34.2,30.12,ENE,78,11.0,12.0,93,0.00,,---,0.00,VWS V15.00,2017-03-25 06:08:00,
2017-03-25 01:13:00,35.9,34.1,30.12,ENE,71,15.0,15.0,93,0.00,,---,0.00,VWS V15.00,2017-03-25 06:13:00,
2017-03-25 01:18:00,35.9,34.1,30.11,NE,46,5.0,12.0,93,0.00,,---,0.00,VWS V15.00,2017-03-25 06:18:00,
2017-03-25 01:23:00,35.9,34.1,30.11,NE,51,15.0,15.0,93,0.00,,---,0.00,VWS V15.00,2017-03-25 06:23:00,
2017-03-25 01:28:00,35.9,34.1,30.11,ENE,70,15.0,16.0,93,0.00,,---,0.00,VWS V15.00,2017-03-25 06:28:00,
2017-03-25 01:33:00,35.9,34.1,30.11,ENE,64,7.0,10.0,93,0.00,,---,0.00,VWS V15.00,2017-03-25 06:33:00,
2017-03-25 01:38:00,35.8,34.0,30.10,NE,46,11.0,12.0,93,0.00,,---,0.00,VWS V15.00,2017-03-25 06:38:00,
2017-03-25 01:43:00,35.8,34.0,30.10,ENE,58,10.0,11.0,93,0.00,,---,0.00,VWS V15.00,2017-03-25 06:43:00,
2017-03-25 01:48:00,35.8,34.0,30.11,ENE,68,9.0,13.0,93,0.00,,---,0.00,VWS V15.00,2017-03-25 06:48:00,
2017-03-25 01:53:00,35.8,34.0,30.11,ENE,65,11.0,15.0,93,0.00,,---,0.00,VWS V15.00,2017-03-25 06:53:00,
2017-03-25 01:58:00,35.8,34.0,30.10,NE,42,9.0,13.0,93,0.00,,---,0.00,VWS V15.00,2017-03-25 06:58:00,
2017-03-25 02:03:00,35.8,34.0,30.10,ENE,76,12.0,13.0,93,0.00,,---,0.00,VWS V15.00,2017-03-25 07:03:00,
2017-03-25 02:08:00,35.8,34.2,30.10,NE,56,12.0,18.0,94,0.00,,---,0.00,VWS V15.00,2017-03-25 07:08:00,
2017-03-25 02:13:00,35.8,34.2,30.10,ENE,71,13.0,14.0,94,0.00,,---,0.00,VWS V15.00,2017-03-25 07:13:00,
2017-03-25 02:18:00,35.8,34.2,30.10,ENE,64,11.0,13.0,94,0.00,,---,0.00,VWS V15.00,2017-03-25 07:18:00,
2017-03-25 02:23:00,35.7,34.2,30.10,ENE,67,7.0,11.0,94,0.00,,---,0.00,VWS V15.00,2017-03-25 07:23:00,